createdAt,value
2023-03-04T00:02:42.258Z,98598.09
2023-03-04T00:12:49.642Z,98580.98
2023-03-04T00:22:55.619Z,98557.92
2023-03-04T00:33:00.903Z,98551.70
2023-03-04T00:43:08.290Z,98553.20
2023-03-04T00:53:15.566Z,98545.27
2023-03-04T01:03:23.197Z,98537.38
2023-03-04T01:13:30.396Z,98529.32
2023-03-04T01:23:37.611Z,98515.21
2023-03-04T01:33:45.219Z,98500.58
2023-03-04T01:43:53.066Z,98484.75
2023-03-04T01:54:00.220Z,98472.56
2023-03-04T02:04:08.144Z,98458.00
2023-03-04T02:14:16.752Z,98445.14
2023-03-04T02:24:30.238Z,98447.11
2023-03-04T02:34:38.748Z,98437.73
2023-03-04T02:44:49.492Z,98431.83
2023-03-04T02:54:56.501Z,98423.80
2023-03-04T03:05:04.003Z,98419.46
2023-03-04T03:15:12.552Z,98409.52
2023-03-04T03:25:18.511Z,98399.89
2023-03-04T03:35:25.585Z,98390.08
2023-03-04T03:45:32.903Z,98386.77
2023-03-04T03:55:40.336Z,98385.57
2023-03-04T04:05:47.471Z,98371.92
2023-03-04T04:15:54.325Z,98370.49
2023-03-04T04:26:01.609Z,98357.80
2023-03-04T04:36:11.326Z,98345.81
2023-03-04T04:46:19.243Z,98328.24
2023-03-04T04:56:28.139Z,98304.78
2023-03-04T05:06:35.234Z,98289.08
2023-03-04T05:16:42.837Z,98274.88
2023-03-04T05:26:50.106Z,98258.84
2023-03-04T05:36:57.195Z,98262.18
2023-03-04T05:47:04.326Z,98290.70
2023-03-04T05:57:10.593Z,98296.73
2023-03-04T06:07:17.756Z,98301.48
2023-03-04T06:17:24.969Z,98307.11
2023-03-04T06:27:32.271Z,98312.64
2023-03-04T06:37:39.374Z,98321.70
2023-03-04T06:47:46.848Z,98329.35
2023-03-04T06:57:54.523Z,98331.43
2023-03-04T07:08:01.596Z,98331.13
2023-03-04T07:18:08.969Z,98328.86
2023-03-04T07:28:16.212Z,98324.30
2023-03-04T07:38:23.231Z,98319.64
2023-03-04T07:48:30.683Z,98313.66
2023-03-04T07:58:37.798Z,98311.55
2023-03-04T08:08:45.438Z,98312.95
2023-03-04T08:18:54.115Z,98313.23
2023-03-04T08:29:05.764Z,98312.80
2023-03-04T08:39:15.549Z,98309.04
2023-03-04T08:49:22.660Z,98298.64
2023-03-04T08:59:29.714Z,98296.98
2023-03-04T09:09:37.458Z,98299.19
2023-03-04T09:19:44.777Z,98294.95
2023-03-04T09:29:51.455Z,98288.49
2023-03-04T09:39:58.957Z,98280.84
2023-03-04T09:50:05.475Z,98265.27
2023-03-04T10:00:18.194Z,98254.48
2023-03-04T10:10:23.414Z,98254.17
2023-03-04T10:20:40.483Z,98250.23
2023-03-04T10:30:46.521Z,98246.15
2023-03-04T10:40:53.666Z,98238.48
2023-03-04T10:51:10.757Z,98227.48
2023-03-04T11:01:25.465Z,98218.19
2023-03-04T11:11:31.253Z,98204.27
2023-03-04T11:21:40.893Z,98206.65
2023-03-04T11:31:46.168Z,98200.77
2023-03-04T11:41:56.320Z,98192.48
2023-03-04T11:52:01.125Z,98179.69
2023-03-04T12:02:16.862Z,98167.94
2023-03-04T12:12:25.552Z,98159.77
2023-03-04T12:22:36.117Z,98151.72
2023-03-04T12:32:41.064Z,98145.59
2023-03-04T12:42:50.978Z,98140.36
2023-03-04T12:52:56.122Z,98123.52
2023-03-04T13:03:04.384Z,98115.16
2023-03-04T13:13:26.087Z,98119.19
2023-03-04T13:23:33.994Z,98112.02
2023-03-04T13:33:46.484Z,98102.70
2023-03-04T13:43:54.783Z,98097.72
2023-03-04T13:54:08.319Z,98095.80
2023-03-04T14:04:20.747Z,98085.73
2023-03-04T14:14:30.041Z,98084.38
2023-03-04T14:24:37.076Z,98084.61
2023-03-04T14:34:44.484Z,98074.87
2023-03-04T14:44:53.462Z,98069.58
2023-03-04T14:55:02.163Z,98074.10
2023-03-04T15:05:16.417Z,98067.05
2023-03-04T15:15:43.843Z,98057.86
2023-03-04T15:25:53.076Z,98054.52
2023-03-04T15:36:00.771Z,98046.09
2023-03-04T15:46:06.234Z,98043.30
2023-03-04T15:56:16.809Z,98047.33
2023-03-04T16:06:26.172Z,98050.88
2023-03-04T16:16:33.408Z,98044.52
2023-03-04T16:26:40.470Z,98045.57
2023-03-04T16:36:47.974Z,98049.23
2023-03-04T16:46:55.188Z,98050.38
2023-03-04T16:57:02.736Z,98064.78
2023-03-04T17:07:09.908Z,98073.23
2023-03-04T17:17:18.518Z,98069.63
2023-03-04T17:27:25.909Z,98061.16
2023-03-04T17:37:33.176Z,98079.52
2023-03-04T17:47:41.056Z,98095.42
2023-03-04T17:57:48.323Z,98101.84
2023-03-04T18:07:54.168Z,98129.17
2023-03-04T18:18:01.233Z,98140.17
2023-03-04T18:28:07.649Z,98144.93
2023-03-04T18:38:14.815Z,98146.55
2023-03-04T18:48:22.007Z,98155.51
2023-03-04T18:58:28.476Z,98159.64
2023-03-04T19:08:36.259Z,98176.39
2023-03-04T19:18:43.868Z,98180.44
2023-03-04T19:28:51.112Z,98178.73
2023-03-04T19:38:59.083Z,98182.64
2023-03-04T19:49:06.772Z,98184.23
2023-03-04T19:59:14.186Z,98194.93
2023-03-04T20:09:23.410Z,98201.36
2023-03-04T20:19:31.778Z,98203.87
2023-03-04T20:29:38.768Z,98201.04
2023-03-04T20:39:46.681Z,98206.52
2023-03-04T20:49:53.068Z,98212.25
2023-03-04T21:00:00.407Z,98221.67
2023-03-04T21:10:06.818Z,98227.66
2023-03-04T21:20:17.075Z,98232.92
2023-03-04T21:30:24.450Z,98232.51
2023-03-04T21:40:31.510Z,98224.55
2023-03-04T21:50:39.931Z,98229.83
2023-03-04T22:00:49.750Z,98234.70
2023-03-04T22:10:56.857Z,98235.18
2023-03-04T22:21:01.793Z,98226.48
2023-03-04T22:31:14.752Z,98237.98
2023-03-04T22:41:22.784Z,98237.46
2023-03-04T22:51:30.800Z,98247.09
2023-03-04T23:01:38.398Z,98242.46
2023-03-04T23:11:44.104Z,98246.26
2023-03-04T23:21:51.250Z,98251.80
2023-03-04T23:31:58.542Z,98255.20
2023-03-04T23:42:05.944Z,98251.27
2023-03-04T23:52:12.972Z,98257.29
